createdAt,value
2022-08-02T00:01:03.199Z,11.74
2022-08-02T00:02:05.685Z,11.74
2022-08-02T00:03:08.993Z,11.73
2022-08-02T00:04:11.535Z,11.73
2022-08-02T00:05:15.217Z,11.73
2022-08-02T00:06:17.504Z,11.72
2022-08-02T00:07:20.730Z,11.72
2022-08-02T00:08:23.072Z,11.71
2022-08-02T00:09:26.422Z,11.70
2022-08-02T00:10:28.726Z,11.71
2022-08-02T00:11:34.069Z,11.71
2022-08-02T00:12:36.670Z,11.70
2022-08-02T00:13:40.021Z,11.69
2022-08-02T00:14:42.482Z,11.70
2022-08-02T00:15:47.022Z,11.68
2022-08-02T00:16:49.353Z,11.68
2022-08-02T00:17:52.657Z,11.67
2022-08-02T00:18:55.132Z,11.66
2022-08-02T00:19:58.372Z,11.66
2022-08-02T00:21:00.573Z,11.65
2022-08-02T00:22:03.745Z,11.63
2022-08-02T00:23:07.061Z,11.63
2022-08-02T00:24:29.802Z,11.62
2022-08-02T00:25:32.802Z,11.60
2022-08-02T00:26:35.055Z,11.59
2022-08-02T00:27:38.316Z,11.59
2022-08-02T00:28:40.686Z,11.58
2022-08-02T00:29:53.099Z,11.57
2022-08-02T00:30:59.035Z,11.56
2022-08-02T00:32:02.478Z,11.56
2022-08-02T00:33:05.731Z,11.56
2022-08-02T00:34:28.495Z,11.55
2022-08-02T00:35:31.474Z,11.55
2022-08-02T00:36:34.731Z,11.54
2022-08-02T00:37:39.752Z,11.53
2022-08-02T00:38:43.248Z,11.51
2022-08-02T00:39:45.398Z,11.51
2022-08-02T00:40:49.079Z,11.50
2022-08-02T00:41:53.029Z,11.50
2022-08-02T00:43:04.333Z,11.49
2022-08-02T00:44:06.470Z,11.48
2022-08-02T00:45:10.460Z,11.46
2022-08-02T00:46:14.329Z,11.45
2022-08-02T00:47:19.431Z,11.43
2022-08-02T00:48:22.056Z,11.40
2022-08-02T00:49:25.218Z,11.38
2022-08-02T00:50:27.741Z,11.36
2022-08-02T00:51:30.905Z,11.35
2022-08-02T00:52:33.017Z,11.34
2022-08-02T00:53:36.458Z,11.34
2022-08-02T00:54:38.540Z,11.33
2022-08-02T00:55:41.689Z,11.32
2022-08-02T00:56:49.648Z,11.32
2022-08-02T00:57:54.918Z,11.31
2022-08-02T00:58:57.142Z,11.30
2022-08-02T01:00:00.275Z,11.30
2022-08-02T01:01:03.652Z,11.30
2022-08-02T01:02:08.390Z,11.29
2022-08-02T01:03:10.638Z,11.29
2022-08-02T01:04:15.399Z,11.28
2022-08-02T01:05:46.952Z,11.25
2022-08-02T01:06:56.092Z,11.25
2022-08-02T01:07:58.347Z,11.24
2022-08-02T01:09:02.000Z,11.24
2022-08-02T01:10:05.123Z,11.22
2022-08-02T01:11:08.679Z,11.21
2022-08-02T01:12:12.069Z,11.20
2022-08-02T01:13:15.589Z,11.19
2022-08-02T01:14:18.877Z,11.18
2022-08-02T01:15:23.632Z,11.16
2022-08-02T01:16:43.253Z,11.16
2022-08-02T01:17:53.743Z,11.15
2022-08-02T01:19:01.664Z,11.14
2022-08-02T01:20:13.296Z,11.15
2022-08-02T01:21:32.785Z,11.12
2022-08-02T01:23:03.596Z,11.11
2022-08-02T01:24:21.160Z,11.11
2022-08-02T01:25:46.080Z,11.10
2022-08-02T01:26:52.990Z,11.11
2022-08-02T01:28:37.367Z,11.10
2022-08-02T01:29:43.827Z,11.09
2022-08-02T01:30:50.026Z,11.08
2022-08-02T01:32:00.467Z,11.08
2022-08-02T01:33:06.900Z,11.07
2022-08-02T01:34:17.741Z,11.07
2022-08-02T01:35:25.343Z,11.07
2022-08-02T01:36:34.195Z,11.07
2022-08-02T01:37:43.306Z,11.06
2022-08-02T01:38:49.683Z,11.06
2022-08-02T01:39:57.843Z,11.05
2022-08-02T01:41:03.928Z,11.04
2022-08-02T01:42:08.729Z,11.04
2022-08-02T01:43:12.604Z,11.00
2022-08-02T01:44:20.095Z,11.01
2022-08-02T01:45:33.239Z,10.99
2022-08-02T01:46:39.687Z,10.97
2022-08-02T01:47:44.300Z,10.97
2022-08-02T01:48:49.729Z,10.96
2022-08-02T01:49:54.685Z,10.96
2022-08-02T01:51:00.269Z,10.94
2022-08-02T01:52:22.465Z,10.94
2022-08-02T01:53:29.159Z,10.94
2022-08-02T01:54:33.720Z,10.93
2022-08-02T01:55:57.555Z,10.93
2022-08-02T01:57:03.087Z,10.94
2022-08-02T01:58:09.196Z,10.93
2022-08-02T01:59:14.176Z,10.92
2022-08-02T02:00:20.907Z,10.91
2022-08-02T02:01:23.983Z,10.90
2022-08-02T02:02:31.804Z,10.89
2022-08-02T02:03:35.775Z,10.89
2022-08-02T02:04:46.943Z,10.89
2022-08-02T02:05:50.563Z,10.86
2022-08-02T02:06:55.036Z,10.85
2022-08-02T02:07:59.036Z,10.86
2022-08-02T02:09:04.018Z,10.84
2022-08-02T02:10:09.206Z,10.83
2022-08-02T02:12:14.713Z,10.81
2022-08-02T02:12:39.491Z,10.79
2022-08-02T02:13:43.807Z,10.79
2022-08-02T02:14:51.393Z,10.77
2022-08-02T02:15:58.685Z,10.77
2022-08-02T02:17:02.994Z,10.78
2022-08-02T02:18:13.281Z,10.78
2022-08-02T02:19:20.917Z,10.78
2022-08-02T02:20:25.321Z,10.77
2022-08-02T02:21:27.504Z,10.77
2022-08-02T02:22:30.816Z,10.77
2022-08-02T02:23:35.598Z,10.74
2022-08-02T02:24:39.209Z,10.76
2022-08-02T02:25:46.451Z,10.76
2022-08-02T02:26:52.561Z,10.76
2022-08-02T02:28:00.017Z,10.75
2022-08-02T02:29:04.325Z,10.73
2022-08-02T02:30:07.964Z,10.72
2022-08-02T02:31:15.267Z,10.71
2022-08-02T02:32:18.799Z,10.70
2022-08-02T02:33:27.670Z,10.69
2022-08-02T02:34:34.238Z,10.68
2022-08-02T02:35:39.023Z,10.67
2022-08-02T02:36:45.867Z,10.67
2022-08-02T02:37:50.818Z,10.66
2022-08-02T02:38:54.333Z,10.65
2022-08-02T02:39:59.301Z,10.65
2022-08-02T02:41:03.400Z,10.64
2022-08-02T02:42:10.162Z,10.63
2022-08-02T02:43:12.942Z,10.62
2022-08-02T02:44:20.504Z,10.61
2022-08-02T02:45:24.292Z,10.61
2022-08-02T02:46:31.182Z,10.59
2022-08-02T02:47:40.743Z,10.58
2022-08-02T02:48:45.473Z,10.58
2022-08-02T02:49:49.163Z,10.58
2022-08-02T02:50:52.651Z,10.57
2022-08-02T02:51:56.134Z,10.55
2022-08-02T02:53:00.318Z,10.55
2022-08-02T02:54:30.715Z,10.54
2022-08-02T02:55:27.855Z,10.54
2022-08-02T02:56:30.514Z,10.53
2022-08-02T02:57:34.434Z,10.53
2022-08-02T02:58:38.298Z,10.55
2022-08-02T02:59:49.195Z,10.53
2022-08-02T03:01:10.779Z,10.53
2022-08-02T03:02:15.933Z,10.54
2022-08-02T03:03:19.732Z,10.54
2022-08-02T03:04:26.181Z,10.55
2022-08-02T03:05:28.550Z,10.55
2022-08-02T03:06:32.039Z,10.55
2022-08-02T03:07:34.648Z,10.55
2022-08-02T03:08:37.856Z,10.54
2022-08-02T03:09:40.029Z,10.54
2022-08-02T03:10:44.202Z,10.54
2022-08-02T03:11:46.766Z,10.54
2022-08-02T03:12:50.548Z,10.53
2022-08-02T03:13:53.514Z,10.53
2022-08-02T03:14:56.796Z,10.53
2022-08-02T03:16:02.026Z,10.53
2022-08-02T03:17:05.322Z,10.53
2022-08-02T03:18:09.817Z,10.53
2022-08-02T03:19:12.143Z,10.53
2022-08-02T03:20:17.731Z,10.53
2022-08-02T03:21:19.916Z,10.54
2022-08-02T03:22:23.049Z,10.54
2022-08-02T03:23:25.140Z,10.53
2022-08-02T03:24:28.583Z,10.54
2022-08-02T03:25:30.843Z,10.55
2022-08-02T03:26:33.965Z,10.55
2022-08-02T03:27:36.131Z,10.56
2022-08-02T03:28:39.488Z,10.56
2022-08-02T03:29:41.617Z,10.57
2022-08-02T03:30:44.779Z,10.58
2022-08-02T03:31:46.962Z,10.57
2022-08-02T03:32:50.259Z,10.58
2022-08-02T03:33:54.255Z,10.59
2022-08-02T03:34:57.911Z,10.59
2022-08-02T03:36:05.343Z,10.60
2022-08-02T03:37:10.415Z,10.61
2022-08-02T03:38:13.635Z,10.62
2022-08-02T03:39:18.861Z,10.63
2022-08-02T03:40:21.744Z,10.64
2022-08-02T03:41:25.686Z,10.65
2022-08-02T03:42:28.889Z,10.65
2022-08-02T03:43:32.449Z,10.65
2022-08-02T03:44:35.597Z,10.65
2022-08-02T03:45:41.067Z,10.67
2022-08-02T03:46:44.616Z,10.67
2022-08-02T03:47:48.056Z,10.69
2022-08-02T03:48:51.708Z,10.70
2022-08-02T03:49:57.148Z,10.70
2022-08-02T03:50:59.994Z,10.72
2022-08-02T03:52:04.072Z,10.72
2022-08-02T03:53:06.595Z,10.74
2022-08-02T03:54:34.806Z,10.76
2022-08-02T03:55:48.726Z,10.76
2022-08-02T03:56:50.994Z,10.78
2022-08-02T03:57:54.309Z,10.78
2022-08-02T03:59:07.027Z,10.79
2022-08-02T04:00:13.094Z,10.80
2022-08-02T04:01:17.535Z,10.81
2022-08-02T04:02:19.702Z,10.83
2022-08-02T04:03:23.145Z,10.82
2022-08-02T04:04:25.299Z,10.85
2022-08-02T04:05:29.784Z,10.85
2022-08-02T04:06:32.208Z,10.86
2022-08-02T04:08:34.178Z,10.85
2022-08-02T04:08:58.545Z,10.86
2022-08-02T04:10:00.819Z,10.86
2022-08-02T04:11:21.429Z,10.87
2022-08-02T04:12:24.656Z,10.87
2022-08-02T04:13:31.850Z,10.87
2022-08-02T04:14:39.318Z,10.88
2022-08-02T04:15:41.865Z,10.87
2022-08-02T04:16:48.012Z,10.88
2022-08-02T04:17:53.017Z,10.88
2022-08-02T04:19:04.834Z,10.89
2022-08-02T04:20:13.015Z,10.90
2022-08-02T04:21:20.570Z,10.90
2022-08-02T04:22:28.669Z,10.90
2022-08-02T04:23:33.222Z,10.90
2022-08-02T04:24:40.687Z,10.89
2022-08-02T04:25:44.485Z,10.90
2022-08-02T04:26:49.904Z,10.89
2022-08-02T04:28:17.797Z,10.88
2022-08-02T04:29:18.255Z,10.87
2022-08-02T04:30:21.498Z,10.88
2022-08-02T04:31:25.387Z,10.87
2022-08-02T04:32:28.000Z,10.86
2022-08-02T04:33:32.284Z,10.85
2022-08-02T04:34:34.623Z,10.86
2022-08-02T04:35:37.921Z,10.86
2022-08-02T04:36:41.540Z,10.86
2022-08-02T04:38:05.575Z,10.86
2022-08-02T04:39:08.507Z,10.86
2022-08-02T04:40:12.156Z,10.86
2022-08-02T04:41:15.697Z,10.87
2022-08-02T04:42:22.010Z,10.87
2022-08-02T04:43:25.498Z,10.87
2022-08-02T04:44:28.669Z,10.88
2022-08-02T04:45:31.086Z,10.88
2022-08-02T04:46:34.628Z,10.89
2022-08-02T04:47:54.348Z,10.88
2022-08-02T04:49:00.116Z,10.89
2022-08-02T04:50:04.785Z,10.90
2022-08-02T04:51:07.911Z,10.89
2022-08-02T04:52:11.701Z,10.90
2022-08-02T04:53:15.104Z,10.90
2022-08-02T04:54:18.315Z,10.89
2022-08-02T04:55:20.529Z,10.91
2022-08-02T04:56:25.366Z,10.92
2022-08-02T04:57:52.373Z,10.92
2022-08-02T04:58:56.276Z,10.92
2022-08-02T04:59:58.493Z,10.92
2022-08-02T05:01:01.660Z,10.91
2022-08-02T05:02:03.884Z,10.92
2022-08-02T05:03:07.085Z,10.93
2022-08-02T05:04:09.335Z,10.94
2022-08-02T05:05:12.486Z,10.95
2022-08-02T05:06:19.248Z,10.96
2022-08-02T05:07:24.247Z,10.99
2022-08-02T05:08:26.435Z,11.00
2022-08-02T05:09:29.574Z,11.02
2022-08-02T05:10:31.756Z,11.03
2022-08-02T05:11:36.588Z,11.05
2022-08-02T05:12:39.682Z,11.08
2022-08-02T05:13:58.495Z,11.11
2022-08-02T05:15:02.636Z,11.15
2022-08-02T05:16:05.570Z,11.18
2022-08-02T05:17:08.672Z,11.20
2022-08-02T05:18:12.381Z,11.24
2022-08-02T05:19:16.559Z,11.27
2022-08-02T05:20:19.499Z,11.30
2022-08-02T05:21:22.621Z,11.33
2022-08-02T05:22:26.250Z,11.36
2022-08-02T05:23:29.457Z,11.39
2022-08-02T05:24:31.634Z,11.43
2022-08-02T05:25:34.791Z,11.47
2022-08-02T05:26:36.906Z,11.51
2022-08-02T05:27:40.072Z,11.54
2022-08-02T05:28:43.227Z,11.58
2022-08-02T05:29:53.031Z,11.61
2022-08-02T05:30:57.372Z,11.66
2022-08-02T05:31:59.544Z,11.70
2022-08-02T05:33:02.665Z,11.74
2022-08-02T05:34:07.573Z,11.78
2022-08-02T05:35:15.138Z,11.83
2022-08-02T05:36:17.294Z,11.87
2022-08-02T05:37:20.980Z,11.92
2022-08-02T05:38:26.148Z,11.94
2022-08-02T05:39:31.924Z,12.00
2022-08-02T05:40:34.107Z,12.05
2022-08-02T05:41:37.293Z,12.09
2022-08-02T05:42:39.414Z,12.14
2022-08-02T05:43:42.481Z,12.20
2022-08-02T05:44:44.670Z,12.25
2022-08-02T05:45:47.732Z,12.29
2022-08-02T05:46:49.887Z,12.33
2022-08-02T05:47:53.658Z,12.39
2022-08-02T05:48:56.031Z,12.44
2022-08-02T05:49:59.630Z,12.48
2022-08-02T05:51:05.680Z,12.54
2022-08-02T05:52:16.039Z,12.59
2022-08-02T05:53:29.961Z,12.66
2022-08-02T05:54:40.253Z,12.71
2022-08-02T05:55:49.270Z,12.76
2022-08-02T05:56:55.065Z,12.82
2022-08-02T05:58:03.951Z,12.88
2022-08-02T05:59:13.948Z,12.93
2022-08-02T06:00:18.104Z,13.00
2022-08-02T06:01:29.725Z,13.04
2022-08-02T06:02:45.246Z,13.11
2022-08-02T06:03:52.233Z,13.14
2022-08-02T06:05:00.634Z,13.20
2022-08-02T06:06:07.527Z,13.24
2022-08-02T06:07:12.030Z,13.29
2022-08-02T06:08:15.185Z,13.33
2022-08-02T06:09:23.028Z,13.37
2022-08-02T06:10:30.566Z,13.41
2022-08-02T06:11:36.930Z,13.46
2022-08-02T06:12:46.697Z,13.50
2022-08-02T06:13:49.377Z,13.57
2022-08-02T06:14:54.644Z,13.60
2022-08-02T06:16:00.945Z,13.65
2022-08-02T06:17:05.207Z,13.72
2022-08-02T06:18:09.130Z,13.76
2022-08-02T06:19:13.985Z,13.83
2022-08-02T06:20:16.707Z,13.88
2022-08-02T06:22:32.244Z,13.93
2022-08-02T06:22:46.433Z,14.00
2022-08-02T06:23:57.793Z,14.05
2022-08-02T06:25:04.519Z,14.10
2022-08-02T06:26:09.039Z,14.15
2022-08-02T06:27:13.520Z,14.19
2022-08-02T06:28:18.087Z,14.21
2022-08-02T06:29:21.077Z,14.26
2022-08-02T06:30:26.909Z,14.31
2022-08-02T06:31:30.578Z,14.35
2022-08-02T06:32:33.582Z,14.39
2022-08-02T06:33:36.843Z,14.43
2022-08-02T06:34:39.735Z,14.47
2022-08-02T06:35:47.595Z,14.53
2022-08-02T06:36:55.643Z,14.57
2022-08-02T06:38:01.901Z,14.61
2022-08-02T06:39:09.517Z,14.65
2022-08-02T06:40:24.698Z,14.68
2022-08-02T06:41:29.430Z,14.73
2022-08-02T06:42:43.562Z,14.78
2022-08-02T06:43:53.706Z,14.83
2022-08-02T06:44:57.994Z,14.87
2022-08-02T06:46:37.713Z,14.92
2022-08-02T06:47:24.836Z,14.97
2022-08-02T06:48:28.056Z,14.99
2022-08-02T06:49:51.964Z,15.04
2022-08-02T06:50:53.581Z,15.08
2022-08-02T06:51:55.810Z,15.13
2022-08-02T06:52:59.018Z,15.18
2022-08-02T06:54:01.309Z,15.23
2022-08-02T06:55:06.796Z,15.28
2022-08-02T06:56:10.479Z,15.32
2022-08-02T06:57:14.536Z,15.35
2022-08-02T06:58:17.746Z,15.38
2022-08-02T06:59:19.900Z,15.40
2022-08-02T07:00:23.041Z,15.43
2022-08-02T07:01:25.362Z,15.45
2022-08-02T07:02:28.589Z,15.48
2022-08-02T07:03:31.113Z,15.49
2022-08-02T07:04:34.970Z,15.54
2022-08-02T07:05:38.662Z,15.57
2022-08-02T07:06:40.871Z,15.60
2022-08-02T07:07:44.101Z,15.62
2022-08-02T07:09:04.915Z,15.66
2022-08-02T07:10:10.217Z,15.70
2022-08-02T07:11:14.762Z,15.73
2022-08-02T07:12:16.982Z,15.77
2022-08-02T07:13:20.171Z,15.80
2022-08-02T07:14:22.319Z,15.83
2022-08-02T07:15:25.544Z,15.86
2022-08-02T07:16:27.695Z,15.91
2022-08-02T07:17:31.281Z,15.95
2022-08-02T07:18:35.101Z,15.97
2022-08-02T07:19:38.615Z,16.00
2022-08-02T07:20:41.044Z,16.04
2022-08-02T07:21:56.609Z,16.08
2022-08-02T07:23:02.832Z,16.11
2022-08-02T07:24:05.379Z,16.15
2022-08-02T07:25:09.605Z,16.18
2022-08-02T07:26:13.121Z,16.22
2022-08-02T07:27:16.368Z,16.27
2022-08-02T07:28:24.019Z,16.32
2022-08-02T07:29:27.042Z,16.36
2022-08-02T07:30:36.257Z,16.40
2022-08-02T07:31:38.454Z,16.42
2022-08-02T07:32:44.649Z,16.47
2022-08-02T07:33:47.188Z,16.51
2022-08-02T07:34:53.494Z,16.55
2022-08-02T07:35:58.768Z,16.60
2022-08-02T07:37:03.962Z,16.65
2022-08-02T07:38:09.277Z,16.67
2022-08-02T07:39:11.451Z,16.72
2022-08-02T07:40:19.876Z,16.75
2022-08-02T07:41:25.946Z,16.78
2022-08-02T07:42:29.476Z,16.81
2022-08-02T07:43:32.682Z,16.82
2022-08-02T07:44:34.916Z,16.87
2022-08-02T07:45:45.792Z,16.90
2022-08-02T07:46:59.548Z,16.94
2022-08-02T07:48:02.942Z,16.97
2022-08-02T07:49:05.148Z,17.00
2022-08-02T07:50:09.860Z,17.03
2022-08-02T07:51:16.987Z,17.05
2022-08-02T07:52:20.502Z,17.06
2022-08-02T07:53:30.638Z,17.09
2022-08-02T07:54:47.289Z,17.12
2022-08-02T07:55:50.456Z,17.15
2022-08-02T07:56:58.372Z,17.18
2022-08-02T07:58:02.462Z,17.22
2022-08-02T07:59:05.226Z,17.25
2022-08-02T08:00:09.767Z,17.31
2022-08-02T08:01:14.719Z,17.33
2022-08-02T08:02:17.910Z,17.37
2022-08-02T08:03:20.403Z,17.40
2022-08-02T08:04:23.714Z,17.43
2022-08-02T08:05:25.857Z,17.45
2022-08-02T08:06:29.478Z,17.50
2022-08-02T08:07:31.695Z,17.52
2022-08-02T08:08:35.759Z,17.54
2022-08-02T08:09:41.201Z,17.56
2022-08-02T08:10:43.524Z,17.58
2022-08-02T08:11:46.638Z,17.61
2022-08-02T08:12:50.227Z,17.64
2022-08-02T08:13:53.413Z,17.66
2022-08-02T08:14:55.765Z,17.68
2022-08-02T08:15:58.984Z,17.71
2022-08-02T08:17:02.442Z,17.73
2022-08-02T08:18:04.730Z,17.76
2022-08-02T08:19:07.990Z,17.80
2022-08-02T08:20:15.418Z,17.83
2022-08-02T08:21:19.241Z,17.88
2022-08-02T08:22:21.611Z,17.91
2022-08-02T08:23:24.894Z,17.95
2022-08-02T08:24:27.188Z,17.98
2022-08-02T08:25:30.366Z,18.02
2022-08-02T08:26:32.634Z,18.06
2022-08-02T08:27:35.848Z,18.09
2022-08-02T08:28:40.393Z,18.14
2022-08-02T08:29:43.007Z,18.16
2022-08-02T08:30:47.404Z,18.18
2022-08-02T08:31:49.822Z,18.21
2022-08-02T08:32:53.115Z,18.22
2022-08-02T08:33:56.901Z,18.24
2022-08-02T08:34:59.469Z,18.27
2022-08-02T08:36:02.809Z,18.32
2022-08-02T08:37:06.372Z,18.35
2022-08-02T08:38:09.696Z,18.41
2022-08-02T08:39:12.886Z,18.44
2022-08-02T08:40:19.327Z,18.50
2022-08-02T08:41:22.978Z,18.55
2022-08-02T08:42:25.199Z,18.61
2022-08-02T08:43:28.364Z,18.65
2022-08-02T08:44:33.241Z,18.70
2022-08-02T08:45:36.881Z,18.72
2022-08-02T08:46:43.406Z,18.77
2022-08-02T08:47:52.212Z,18.81
2022-08-02T08:49:01.169Z,18.85
2022-08-02T08:50:05.860Z,18.89
2022-08-02T08:51:12.914Z,18.94
2022-08-02T08:52:16.510Z,18.98
2022-08-02T08:53:21.400Z,19.02
2022-08-02T08:54:42.156Z,19.06
2022-08-02T08:55:44.931Z,19.11
2022-08-02T08:56:48.504Z,19.17
2022-08-02T08:57:51.354Z,19.21
2022-08-02T08:58:54.492Z,19.25
2022-08-02T08:59:58.448Z,19.28
2022-08-02T09:01:01.741Z,19.32
2022-08-02T09:02:16.833Z,19.34
2022-08-02T09:03:24.752Z,19.39
2022-08-02T09:04:27.161Z,19.44
2022-08-02T09:05:30.313Z,19.46
2022-08-02T09:06:32.528Z,19.49
2022-08-02T09:07:35.726Z,19.52
2022-08-02T09:08:38.953Z,19.55
2022-08-02T09:09:41.148Z,19.57
2022-08-02T09:10:46.076Z,19.62
2022-08-02T09:11:49.336Z,19.65
2022-08-02T09:13:37.504Z,19.70
2022-08-02T09:14:32.759Z,19.77
2022-08-02T09:15:36.495Z,19.84
2022-08-02T09:16:41.395Z,19.91
2022-08-02T09:17:50.897Z,19.98
2022-08-02T09:18:54.054Z,20.03
2022-08-02T09:20:07.949Z,20.10
2022-08-02T09:21:11.487Z,20.12
2022-08-02T09:22:16.278Z,20.17
2022-08-02T09:23:18.950Z,20.21
2022-08-02T09:24:23.748Z,20.23
2022-08-02T09:25:25.926Z,20.25
2022-08-02T09:26:29.431Z,20.27
2022-08-02T09:27:37.821Z,20.30
2022-08-02T09:28:41.662Z,20.33
2022-08-02T09:30:11.656Z,20.37
2022-08-02T09:31:13.558Z,20.41
2022-08-02T09:32:17.948Z,20.45
2022-08-02T09:33:27.462Z,20.48
2022-08-02T09:34:45.277Z,20.51
2022-08-02T09:36:06.548Z,20.54
2022-08-02T09:37:23.316Z,20.58
2022-08-02T09:38:26.464Z,20.62
2022-08-02T09:39:47.598Z,20.67
2022-08-02T09:40:50.156Z,20.70
2022-08-02T09:41:53.397Z,20.75
2022-08-02T09:42:59.339Z,20.77
2022-08-02T09:44:06.435Z,20.79
2022-08-02T09:45:10.296Z,20.81
2022-08-02T09:46:17.174Z,20.79
2022-08-02T09:47:19.295Z,20.79
2022-08-02T09:48:22.776Z,20.80
2022-08-02T09:49:26.149Z,20.82
2022-08-02T09:50:29.627Z,20.84
2022-08-02T09:51:34.759Z,20.86
2022-08-02T09:52:43.697Z,20.90
2022-08-02T09:53:48.741Z,20.93
2022-08-02T09:54:52.178Z,20.97
2022-08-02T09:55:56.204Z,21.00
2022-08-02T09:57:01.076Z,21.06
2022-08-02T09:58:19.097Z,21.09
2022-08-02T09:59:25.360Z,21.11
2022-08-02T10:00:50.878Z,21.17
2022-08-02T10:02:01.273Z,21.20
2022-08-02T10:03:09.418Z,21.24
2022-08-02T10:04:22.519Z,21.28
2022-08-02T10:05:30.129Z,21.33
2022-08-02T10:06:38.756Z,21.37
2022-08-02T10:07:41.989Z,21.44
2022-08-02T10:08:45.479Z,21.50
2022-08-02T10:09:49.173Z,21.55
2022-08-02T10:11:00.375Z,21.60
2022-08-02T10:12:04.871Z,21.67
2022-08-02T10:13:07.369Z,21.73
2022-08-02T10:14:11.890Z,21.76
2022-08-02T10:15:14.868Z,21.80
2022-08-02T10:16:19.751Z,21.85
2022-08-02T10:17:25.337Z,21.89
2022-08-02T10:18:38.848Z,21.89
2022-08-02T10:20:00.067Z,21.97
2022-08-02T10:21:07.567Z,22.02
2022-08-02T10:22:12.779Z,22.04
2022-08-02T10:23:16.160Z,22.05
2022-08-02T10:24:22.210Z,22.07
2022-08-02T10:25:25.039Z,22.07
2022-08-02T10:26:28.568Z,22.09
2022-08-02T10:27:48.922Z,22.09
2022-08-02T10:28:55.353Z,22.13
2022-08-02T10:30:00.713Z,22.17
2022-08-02T10:31:06.499Z,22.20
2022-08-02T10:32:13.007Z,22.24
2022-08-02T10:33:20.176Z,22.28
2022-08-02T10:34:31.563Z,22.32
2022-08-02T10:35:37.700Z,22.35
2022-08-02T10:36:42.834Z,22.37
2022-08-02T10:37:47.920Z,22.41
2022-08-02T10:38:51.531Z,22.44
2022-08-02T10:39:56.557Z,22.48
2022-08-02T10:40:59.781Z,22.51
2022-08-02T10:42:02.930Z,22.56
2022-08-02T10:43:05.060Z,22.58
2022-08-02T10:44:08.287Z,22.61
2022-08-02T10:45:28.316Z,22.65
2022-08-02T10:46:33.293Z,22.68
2022-08-02T10:47:36.469Z,22.72
2022-08-02T10:49:36.138Z,22.75
2022-08-02T10:50:55.734Z,22.78
2022-08-02T10:52:07.071Z,22.81
2022-08-02T10:53:29.781Z,22.84
2022-08-02T10:54:34.513Z,22.85
2022-08-02T10:55:46.589Z,22.87
2022-08-02T10:56:51.102Z,22.91
2022-08-02T10:58:17.733Z,22.94
2022-08-02T10:59:29.247Z,22.96
2022-08-02T11:00:32.429Z,22.99
2022-08-02T11:01:43.895Z,23.00
2022-08-02T11:02:53.306Z,23.03
2022-08-02T11:03:59.541Z,23.05
2022-08-02T11:05:06.972Z,23.08
2022-08-02T11:06:24.986Z,23.13
2022-08-02T11:07:36.401Z,23.16
2022-08-02T11:08:40.199Z,23.19
2022-08-02T11:09:42.947Z,23.22
2022-08-02T11:10:46.528Z,23.25
2022-08-02T11:12:01.447Z,23.31
2022-08-02T11:13:10.493Z,23.35
2022-08-02T11:14:14.763Z,23.38
2022-08-02T11:15:20.032Z,23.42
2022-08-02T11:16:23.191Z,23.45
2022-08-02T11:17:28.902Z,23.50
2022-08-02T11:19:04.055Z,23.55
2022-08-02T11:20:19.015Z,23.58
2022-08-02T11:21:24.771Z,23.62
2022-08-02T11:22:28.069Z,23.64
2022-08-02T11:23:44.266Z,23.66
2022-08-02T11:24:49.313Z,23.67
2022-08-02T11:26:03.554Z,23.69
2022-08-02T11:27:09.034Z,23.71
2022-08-02T11:28:12.714Z,23.74
2022-08-02T11:29:16.346Z,23.77
2022-08-02T11:30:20.572Z,23.81
2022-08-02T11:31:29.306Z,23.85
2022-08-02T11:32:36.157Z,23.91
2022-08-02T11:33:38.852Z,23.98
2022-08-02T11:34:43.545Z,24.05
2022-08-02T11:35:47.181Z,24.13
2022-08-02T11:36:52.743Z,24.20
2022-08-02T11:37:55.352Z,24.28
2022-08-02T11:39:10.709Z,24.34
2022-08-02T11:40:18.994Z,24.41
2022-08-02T11:41:45.810Z,24.46
2022-08-02T11:42:50.399Z,24.51
2022-08-02T11:43:54.851Z,24.55
2022-08-02T11:44:58.102Z,24.58
2022-08-02T11:46:03.898Z,24.62
2022-08-02T11:47:08.411Z,24.64
2022-08-02T11:48:10.741Z,24.66
2022-08-02T11:49:16.173Z,24.68
2022-08-02T11:50:29.950Z,24.70
2022-08-02T11:51:34.148Z,24.72
2022-08-02T11:52:39.020Z,24.74
2022-08-02T11:53:50.162Z,24.77
2022-08-02T11:54:53.363Z,24.79
2022-08-02T11:55:57.436Z,24.81
2022-08-02T11:57:19.293Z,24.85
2022-08-02T11:58:23.442Z,24.86
2022-08-02T11:59:25.695Z,24.90
2022-08-02T12:00:30.579Z,24.89
2022-08-02T12:01:44.788Z,24.95
2022-08-02T12:02:49.862Z,24.97
2022-08-02T12:03:52.262Z,25.02
2022-08-02T12:04:58.422Z,25.06
2022-08-02T12:06:06.419Z,25.10
2022-08-02T12:07:15.334Z,25.13
2022-08-02T12:08:19.195Z,25.17
2022-08-02T12:09:27.603Z,25.20
2022-08-02T12:10:31.138Z,25.25
2022-08-02T12:11:39.175Z,25.30
2022-08-02T12:12:49.758Z,25.25
2022-08-02T12:13:57.064Z,25.38
2022-08-02T12:15:00.763Z,25.41
2022-08-02T12:16:25.750Z,25.45
2022-08-02T12:17:50.086Z,25.48
2022-08-02T12:19:22.353Z,25.52
2022-08-02T12:20:37.363Z,25.59
2022-08-02T12:21:40.682Z,25.63
2022-08-02T12:22:45.520Z,25.66
2022-08-02T12:24:00.131Z,25.69
2022-08-02T12:25:33.466Z,25.73
2022-08-02T12:26:44.451Z,25.74
2022-08-02T12:27:47.897Z,25.76
2022-08-02T12:28:57.526Z,25.78
2022-08-02T12:30:03.667Z,25.80
2022-08-02T12:31:08.436Z,25.82
2022-08-02T12:32:25.417Z,25.84
2022-08-02T12:33:30.369Z,25.86
2022-08-02T12:34:35.077Z,25.89
2022-08-02T12:35:37.337Z,25.93
2022-08-02T12:36:40.692Z,25.96
2022-08-02T12:37:47.561Z,26.02
2022-08-02T12:38:53.133Z,26.02
2022-08-02T12:39:56.320Z,26.10
2022-08-02T12:41:30.263Z,26.11
2022-08-02T12:42:46.525Z,26.12
2022-08-02T12:43:50.983Z,26.11
2022-08-02T12:44:54.560Z,26.09
2022-08-02T12:45:57.811Z,26.07
2022-08-02T12:47:02.026Z,26.08
2022-08-02T12:48:07.287Z,26.09
2022-08-02T12:49:18.398Z,26.15
2022-08-02T12:50:25.591Z,26.20
2022-08-02T12:51:50.955Z,26.25
2022-08-02T12:53:07.288Z,26.31
2022-08-02T12:54:18.075Z,26.35
2022-08-02T12:55:24.437Z,26.38
2022-08-02T12:56:28.389Z,26.39
2022-08-02T12:57:31.571Z,26.40
2022-08-02T12:58:49.658Z,26.38
2022-08-02T12:59:54.579Z,26.35
2022-08-02T13:00:58.894Z,26.33
2022-08-02T13:02:04.189Z,26.32
2022-08-02T13:04:07.862Z,26.32
2022-08-02T13:04:33.040Z,26.29
2022-08-02T13:05:56.572Z,26.29
2022-08-02T13:07:00.722Z,26.26
2022-08-02T13:08:05.006Z,26.26
2022-08-02T13:09:16.881Z,26.29
2022-08-02T13:10:21.596Z,26.34
2022-08-02T13:11:23.732Z,26.40
2022-08-02T13:12:26.881Z,26.46
2022-08-02T13:13:29.069Z,26.54
2022-08-02T13:14:39.868Z,26.64
2022-08-02T13:15:48.858Z,26.73
2022-08-02T13:16:54.091Z,26.82
2022-08-02T13:17:56.864Z,26.89
2022-08-02T13:19:00.291Z,26.96
2022-08-02T13:20:04.110Z,27.04
2022-08-02T13:21:07.377Z,27.10
2022-08-02T13:22:18.814Z,27.13
2022-08-02T13:23:23.390Z,27.19
2022-08-02T13:24:37.988Z,27.23
2022-08-02T13:25:42.882Z,27.31
2022-08-02T13:26:45.519Z,27.41
2022-08-02T13:27:48.643Z,27.50
2022-08-02T13:28:50.738Z,27.57
2022-08-02T13:29:55.377Z,27.64
2022-08-02T13:31:06.070Z,27.76
2022-08-02T13:32:21.205Z,27.89
2022-08-02T13:33:23.581Z,28.04
2022-08-02T13:34:27.286Z,28.14
2022-08-02T13:35:30.737Z,28.26
2022-08-02T13:36:33.914Z,28.36
2022-08-02T13:37:40.128Z,28.42
2022-08-02T13:38:43.966Z,28.46
2022-08-02T13:40:05.446Z,28.49
2022-08-02T13:41:10.730Z,28.52
2022-08-02T13:42:16.930Z,28.56
2022-08-02T13:43:20.343Z,28.60
2022-08-02T13:44:22.858Z,28.63
2022-08-02T13:45:26.341Z,28.66
2022-08-02T13:46:29.544Z,28.70
2022-08-02T13:47:36.270Z,28.76
2022-08-02T13:48:56.057Z,28.84
2022-08-02T13:49:58.325Z,28.91
2022-08-02T13:51:01.579Z,28.95
2022-08-02T13:52:03.769Z,28.99
2022-08-02T13:53:07.134Z,29.03
2022-08-02T13:54:10.728Z,29.08
2022-08-02T13:55:13.871Z,29.10
2022-08-02T13:56:18.081Z,29.00
2022-08-02T13:57:21.938Z,29.12
2022-08-02T13:58:25.168Z,29.09
2022-08-02T13:59:58.480Z,29.03
2022-08-02T14:00:50.569Z,28.99
2022-08-02T14:01:52.851Z,28.94
2022-08-02T14:02:56.130Z,28.89
2022-08-02T14:04:07.383Z,28.86
2022-08-02T14:05:12.299Z,28.88
2022-08-02T14:06:15.423Z,28.88
2022-08-02T14:07:17.645Z,28.91
2022-08-02T14:08:22.890Z,28.93
2022-08-02T14:09:27.641Z,28.93
2022-08-02T14:10:30.456Z,28.96
2022-08-02T14:11:34.187Z,28.98
2022-08-02T14:12:38.068Z,29.02
2022-08-02T14:13:40.333Z,29.08
2022-08-02T14:14:43.498Z,29.16
2022-08-02T14:15:46.108Z,29.25
2022-08-02T14:16:49.306Z,29.31